createdAt,value
2018-08-12T00:00:42.393Z,866.78
2018-08-12T00:01:42.710Z,866.83
2018-08-12T00:02:42.723Z,866.79
2018-08-12T00:03:42.371Z,866.83
2018-08-12T00:04:42.706Z,866.83
2018-08-12T00:05:42.693Z,866.83
2018-08-12T00:06:42.695Z,866.82
2018-08-12T00:07:42.347Z,866.81
2018-08-12T00:08:42.338Z,866.81
2018-08-12T00:09:42.340Z,866.87
2018-08-12T00:10:42.339Z,866.85
2018-08-12T00:11:42.305Z,866.85
2018-08-12T00:12:42.333Z,866.88
2018-08-12T00:13:42.320Z,866.86
2018-08-12T00:14:42.623Z,866.84
2018-08-12T00:15:42.297Z,866.87
2018-08-12T00:16:42.271Z,866.85
2018-08-12T00:17:42.601Z,866.85
2018-08-12T00:18:42.613Z,866.85
2018-08-12T00:19:42.597Z,866.83
2018-08-12T00:20:42.276Z,866.85
2018-08-12T00:21:42.259Z,866.83
2018-08-12T00:22:42.242Z,866.81
2018-08-12T00:23:42.583Z,866.81
2018-08-12T00:24:42.584Z,866.80
2018-08-12T00:25:42.233Z,866.83
2018-08-12T00:26:42.561Z,866.78
2018-08-12T00:27:42.537Z,866.79
2018-08-12T00:28:42.202Z,866.81
2018-08-12T00:29:42.188Z,866.78
2018-08-12T00:30:42.190Z,866.79
2018-08-12T00:31:42.523Z,866.75
2018-08-12T00:32:42.175Z,866.78
2018-08-12T00:33:42.157Z,866.76
2018-08-12T00:34:42.172Z,866.74
2018-08-12T00:35:42.155Z,866.72
2018-08-12T00:36:42.158Z,866.76
2018-08-12T00:37:42.144Z,866.74
2018-08-12T00:38:42.479Z,866.70
2018-08-12T00:39:42.451Z,866.71
2018-08-12T00:40:42.445Z,866.74
2018-08-12T00:41:42.459Z,866.68
2018-08-12T00:42:42.108Z,866.68
2018-08-12T00:43:42.114Z,866.66
2018-08-12T00:44:42.094Z,866.65
2018-08-12T00:45:42.410Z,866.66
2018-08-12T00:46:42.092Z,866.68
2018-08-12T00:47:42.419Z,866.66
2018-08-12T00:48:42.409Z,866.67
2018-08-12T00:49:42.393Z,866.67
2018-08-12T00:50:42.040Z,866.66
2018-08-12T00:51:42.050Z,866.63
2018-08-12T00:52:42.382Z,866.65
2018-08-12T00:53:42.030Z,866.64
2018-08-12T00:54:42.345Z,866.67
2018-08-12T00:55:42.025Z,866.67
2018-08-12T00:56:42.341Z,866.65
2018-08-12T00:57:42.329Z,866.65
2018-08-12T00:58:42.340Z,866.68
2018-08-12T00:59:42.335Z,866.68
2018-08-12T01:00:42.309Z,866.65
2018-08-12T01:01:41.990Z,866.67
2018-08-12T01:02:41.980Z,866.63
2018-08-12T01:03:41.971Z,866.64
2018-08-12T01:04:42.275Z,866.67
2018-08-12T01:05:41.957Z,866.64
2018-08-12T01:06:42.269Z,866.63
2018-08-12T01:07:42.289Z,866.62
2018-08-12T01:08:42.259Z,866.61
2018-08-12T01:09:41.907Z,866.58
2018-08-12T01:10:41.915Z,866.61
2018-08-12T01:11:41.916Z,866.58
2018-08-12T01:12:42.231Z,866.62
2018-08-12T01:13:41.893Z,866.58
2018-08-12T01:14:42.215Z,866.60
2018-08-12T01:15:42.230Z,866.58
2018-08-12T01:16:41.872Z,866.57
2018-08-12T01:17:41.870Z,866.58
2018-08-12T01:18:41.850Z,866.56
2018-08-12T01:19:42.180Z,866.54
2018-08-12T01:20:42.195Z,866.56
2018-08-12T01:21:41.844Z,866.54
2018-08-12T01:22:41.866Z,866.53
2018-08-12T01:23:42.174Z,866.55
2018-08-12T01:24:42.147Z,866.51
2018-08-12T01:25:42.141Z,866.48
2018-08-12T01:26:41.807Z,866.43
2018-08-12T01:27:41.802Z,866.43
2018-08-12T01:28:41.816Z,866.43
2018-08-12T01:29:42.115Z,866.38
2018-08-12T01:30:41.768Z,866.40
2018-08-12T01:31:41.802Z,866.39
2018-08-12T01:32:41.767Z,866.38
2018-08-12T01:33:42.107Z,866.42
2018-08-12T01:34:41.758Z,866.39
2018-08-12T01:35:41.743Z,866.42
2018-08-12T01:36:42.072Z,866.41
2018-08-12T01:37:42.076Z,866.40
2018-08-12T01:38:42.053Z,866.41
2018-08-12T01:39:42.066Z,866.40
2018-08-12T01:40:42.055Z,866.41
2018-08-12T01:41:41.724Z,866.40
2018-08-12T01:42:42.026Z,866.43
2018-08-12T01:43:41.702Z,866.42
2018-08-12T01:44:41.703Z,866.41
2018-08-12T01:45:41.684Z,866.40
2018-08-12T01:46:41.662Z,866.39
2018-08-12T01:47:42.013Z,866.33
2018-08-12T01:48:41.987Z,866.36
2018-08-12T01:49:41.980Z,866.35
2018-08-12T01:50:41.641Z,866.35
2018-08-12T01:51:41.970Z,866.34
2018-08-12T01:52:41.978Z,866.29
2018-08-12T01:53:41.951Z,866.28
2018-08-12T01:54:41.627Z,866.29
2018-08-12T01:55:41.930Z,866.29
2018-08-12T01:56:41.615Z,866.28
2018-08-12T01:57:41.942Z,866.24
2018-08-12T01:58:41.937Z,866.28
2018-08-12T01:59:41.911Z,866.30
2018-08-12T02:00:41.923Z,866.28
2018-08-12T02:01:41.565Z,866.27
2018-08-12T02:02:41.544Z,866.22
2018-08-12T02:03:41.580Z,866.24
2018-08-12T02:04:41.584Z,866.21
2018-08-12T02:05:41.552Z,866.21
2018-08-12T02:06:41.533Z,866.20
2018-08-12T02:07:41.551Z,866.19
2018-08-12T02:08:41.844Z,866.19
2018-08-12T02:09:41.518Z,866.25
2018-08-12T02:10:41.856Z,866.25
2018-08-12T02:11:41.849Z,866.23
2018-08-12T02:12:41.497Z,866.22
2018-08-12T02:13:41.504Z,866.19
2018-08-12T02:14:41.829Z,866.23
2018-08-12T02:15:41.476Z,866.22
2018-08-12T02:16:41.798Z,866.20
2018-08-12T02:17:41.809Z,866.22
2018-08-12T02:18:41.803Z,866.19
2018-08-12T02:19:41.461Z,866.20
2018-08-12T02:20:41.472Z,866.23
2018-08-12T02:21:41.765Z,866.19
2018-08-12T02:22:41.414Z,866.18
2018-08-12T02:23:41.772Z,866.18
2018-08-12T02:24:41.417Z,866.18
2018-08-12T02:25:41.760Z,866.17
2018-08-12T02:26:41.741Z,866.14
2018-08-12T02:27:41.413Z,866.14
2018-08-12T02:28:41.403Z,866.15
2018-08-12T02:29:41.414Z,866.16
2018-08-12T02:30:41.387Z,866.16
2018-08-12T02:31:41.716Z,866.16
2018-08-12T02:32:41.709Z,866.17
2018-08-12T02:33:41.701Z,866.14
2018-08-12T02:34:41.696Z,866.15
2018-08-12T02:35:41.699Z,866.17
2018-08-12T02:36:41.665Z,866.16
2018-08-12T02:37:41.656Z,866.16
2018-08-12T02:38:41.344Z,866.13
2018-08-12T02:39:41.674Z,866.14
2018-08-12T02:40:41.657Z,866.12
2018-08-12T02:41:41.626Z,866.11
2018-08-12T02:42:41.324Z,866.12
2018-08-12T02:43:41.632Z,866.13
2018-08-12T02:44:41.611Z,866.08
2018-08-12T02:45:41.631Z,866.12
2018-08-12T02:46:41.612Z,866.10
2018-08-12T02:47:41.260Z,866.09
2018-08-12T02:48:41.614Z,866.09
2018-08-12T02:49:41.245Z,866.12
2018-08-12T02:50:41.569Z,866.10
2018-08-12T02:51:41.583Z,866.10
2018-08-12T02:52:41.218Z,866.10
2018-08-12T02:53:41.242Z,866.10
2018-08-12T02:54:41.553Z,866.13
2018-08-12T02:55:41.539Z,866.11
2018-08-12T02:56:41.536Z,866.11
2018-08-12T02:57:41.210Z,866.10
2018-08-12T02:58:41.533Z,866.13
2018-08-12T02:59:41.548Z,866.11
2018-08-12T03:00:41.507Z,866.14
2018-08-12T03:01:41.495Z,866.12
2018-08-12T03:02:41.513Z,866.14
2018-08-12T03:03:41.162Z,866.15
2018-08-12T03:04:41.176Z,866.16
2018-08-12T03:05:41.471Z,866.13
2018-08-12T03:06:41.466Z,866.13
2018-08-12T03:07:41.457Z,866.11
2018-08-12T03:08:41.120Z,866.08
2018-08-12T03:09:41.114Z,866.07
2018-08-12T03:10:41.102Z,866.05
2018-08-12T03:11:41.439Z,866.05
2018-08-12T03:12:41.441Z,866.02
2018-08-12T03:13:41.102Z,866.03
2018-08-12T03:14:41.113Z,866.01
2018-08-12T03:15:41.403Z,866.03
2018-08-12T03:16:41.415Z,866.03
2018-08-12T03:17:41.408Z,866.00
2018-08-12T03:18:41.061Z,866.01
2018-08-12T03:19:41.394Z,865.98
2018-08-12T03:20:41.057Z,866.00
2018-08-12T03:21:41.027Z,866.02
2018-08-12T03:22:41.043Z,866.05
2018-08-12T03:23:41.023Z,865.97
2018-08-12T03:24:41.363Z,865.98
2018-08-12T03:25:41.337Z,865.97
2018-08-12T03:26:41.354Z,865.96
2018-08-12T03:27:41.326Z,865.96
2018-08-12T03:28:40.996Z,865.92
2018-08-12T03:29:40.986Z,865.90
2018-08-12T03:30:41.324Z,865.88
2018-08-12T03:31:40.977Z,865.94
2018-08-12T03:32:40.981Z,865.91
2018-08-12T03:33:40.981Z,865.90
2018-08-12T03:34:41.281Z,865.89
2018-08-12T03:35:41.286Z,865.93
2018-08-12T03:36:41.284Z,865.89
2018-08-12T03:37:40.946Z,865.91
2018-08-12T03:38:41.255Z,865.91
2018-08-12T03:39:40.934Z,865.88
2018-08-12T03:40:41.246Z,865.86
2018-08-12T03:41:41.234Z,865.85
2018-08-12T03:42:41.229Z,865.82
2018-08-12T03:43:41.234Z,865.79
2018-08-12T03:44:40.906Z,865.82
2018-08-12T03:45:40.884Z,865.80
2018-08-12T03:46:40.888Z,865.84
2018-08-12T03:47:41.220Z,865.83
2018-08-12T03:48:41.186Z,865.81
2018-08-12T03:49:40.846Z,865.80
2018-08-12T03:50:41.195Z,865.85
2018-08-12T03:51:40.838Z,865.81
2018-08-12T03:52:40.837Z,865.82
2018-08-12T03:53:41.796Z,865.83
2018-08-12T03:54:40.814Z,865.82
2018-08-12T03:55:41.142Z,865.80
2018-08-12T03:56:41.138Z,865.77
2018-08-12T03:57:41.570Z,865.78
2018-08-12T03:58:40.813Z,865.80
2018-08-12T03:59:41.139Z,865.78
2018-08-12T04:00:41.111Z,865.76
2018-08-12T04:01:41.105Z,865.77
2018-08-12T04:02:41.103Z,865.74
2018-08-12T04:03:40.766Z,865.73
2018-08-12T04:04:40.770Z,865.72
2018-08-12T04:05:41.093Z,865.73
2018-08-12T04:06:40.763Z,865.73
2018-08-12T04:07:40.745Z,865.69
2018-08-12T04:08:40.752Z,865.71
2018-08-12T04:09:40.721Z,865.73
2018-08-12T04:10:41.048Z,865.71
2018-08-12T04:11:40.733Z,865.67
2018-08-12T04:12:40.721Z,865.72
2018-08-12T04:13:41.043Z,865.70
2018-08-12T04:14:40.707Z,865.66
2018-08-12T04:15:40.688Z,865.69
2018-08-12T04:16:41.006Z,865.68
2018-08-12T04:17:40.999Z,865.70
2018-08-12T04:18:40.675Z,865.70
2018-08-12T04:19:41.004Z,865.66
2018-08-12T04:20:40.657Z,865.64
2018-08-12T04:21:40.973Z,865.66
2018-08-12T04:22:40.639Z,865.64
2018-08-12T04:23:40.651Z,865.63
2018-08-12T04:24:40.968Z,865.61
2018-08-12T04:25:40.629Z,865.60
2018-08-12T04:26:40.942Z,865.61
2018-08-12T04:27:40.935Z,865.60
2018-08-12T04:28:40.944Z,865.58
2018-08-12T04:29:40.942Z,865.58
2018-08-12T04:30:40.935Z,865.61
2018-08-12T04:31:40.605Z,865.61
2018-08-12T04:32:40.605Z,865.62
2018-08-12T04:33:40.570Z,865.63
2018-08-12T04:34:40.886Z,865.63
2018-08-12T04:35:41.104Z,865.63
2018-08-12T04:36:40.547Z,865.64
2018-08-12T04:37:40.542Z,865.63
2018-08-12T04:38:40.881Z,865.61
2018-08-12T04:39:40.532Z,865.63
2018-08-12T04:40:40.521Z,865.60
2018-08-12T04:41:40.840Z,865.59
2018-08-12T04:42:40.853Z,865.61
2018-08-12T04:43:40.502Z,865.57
2018-08-12T04:44:40.843Z,865.59
2018-08-12T04:45:40.483Z,865.58
2018-08-12T04:46:40.513Z,865.57
2018-08-12T04:47:40.803Z,865.59
2018-08-12T04:48:40.488Z,865.54
2018-08-12T04:49:40.788Z,865.59
2018-08-12T04:50:40.802Z,865.57
2018-08-12T04:51:40.454Z,865.57
2018-08-12T04:52:40.450Z,865.60
2018-08-12T04:53:40.448Z,865.55
2018-08-12T04:54:40.411Z,865.55
2018-08-12T04:55:40.751Z,865.58
2018-08-12T04:56:40.417Z,865.58
2018-08-12T04:57:40.738Z,865.57
2018-08-12T04:58:40.404Z,865.54
2018-08-12T04:59:40.723Z,865.57
2018-08-12T05:00:40.421Z,865.55
2018-08-12T05:01:40.380Z,865.54
2018-08-12T05:02:40.369Z,865.55
2018-08-12T05:03:40.694Z,865.56
2018-08-12T05:04:40.693Z,865.56
2018-08-12T05:05:40.701Z,865.51
2018-08-12T05:06:40.671Z,865.51
2018-08-12T05:07:40.680Z,865.53
2018-08-12T05:08:40.664Z,865.50
2018-08-12T05:09:40.656Z,865.43
2018-08-12T05:10:40.667Z,865.43
2018-08-12T05:11:40.329Z,865.45
2018-08-12T05:12:40.320Z,865.46
2018-08-12T05:13:40.629Z,865.46
2018-08-12T05:14:40.640Z,865.47
2018-08-12T05:15:40.307Z,865.43
2018-08-12T05:16:41.114Z,865.44
2018-08-12T05:17:40.278Z,865.37
2018-08-12T05:18:40.597Z,865.39
2018-08-12T05:19:40.273Z,865.36
2018-08-12T05:20:40.612Z,865.37
2018-08-12T05:21:40.579Z,865.36
2018-08-12T05:22:40.575Z,865.37
2018-08-12T05:23:40.248Z,865.34
2018-08-12T05:24:40.578Z,865.35
2018-08-12T05:25:40.568Z,865.38
2018-08-12T05:26:40.549Z,865.37
2018-08-12T05:27:40.530Z,865.35
2018-08-12T05:28:40.214Z,865.31
2018-08-12T05:29:40.542Z,865.26
2018-08-12T05:30:40.203Z,865.23
2018-08-12T05:31:40.503Z,865.26
2018-08-12T05:32:40.199Z,865.22
2018-08-12T05:33:40.515Z,865.22
2018-08-12T05:34:40.157Z,865.24
2018-08-12T05:35:40.510Z,865.20
2018-08-12T05:36:40.153Z,865.21
2018-08-12T05:37:40.488Z,865.19
2018-08-12T05:38:40.482Z,865.19
2018-08-12T05:39:40.476Z,865.20
2018-08-12T05:40:40.122Z,865.20
2018-08-12T05:41:40.463Z,865.20
2018-08-12T05:42:40.144Z,865.18
2018-08-12T05:43:40.094Z,865.14
2018-08-12T05:44:40.432Z,865.16
2018-08-12T05:45:40.442Z,865.12
2018-08-12T05:46:40.100Z,865.13
2018-08-12T05:47:40.408Z,865.15
2018-08-12T05:48:40.425Z,865.15
2018-08-12T05:49:40.072Z,865.15
2018-08-12T05:50:40.089Z,865.12
2018-08-12T05:51:40.402Z,865.10
2018-08-12T05:52:40.871Z,865.09
2018-08-12T05:53:40.054Z,865.05
2018-08-12T05:54:40.034Z,865.06
2018-08-12T05:55:40.370Z,865.06
2018-08-12T05:56:40.025Z,865.07
2018-08-12T05:57:40.364Z,865.08
2018-08-12T05:58:40.019Z,865.08
2018-08-12T05:59:40.015Z,865.08
2018-08-12T06:00:40.007Z,865.06
2018-08-12T06:01:40.305Z,865.08
2018-08-12T06:02:40.343Z,865.05
2018-08-12T06:03:40.312Z,865.05
2018-08-12T06:04:41.102Z,865.05
2018-08-12T06:05:40.289Z,865.04
2018-08-12T06:06:40.284Z,865.02
2018-08-12T06:07:40.291Z,865.03
2018-08-12T06:08:40.285Z,865.03
2018-08-12T06:09:39.943Z,865.02
2018-08-12T06:10:39.925Z,865.03
2018-08-12T06:11:40.247Z,865.03
2018-08-12T06:12:39.905Z,865.03
2018-08-12T06:13:40.248Z,865.03
2018-08-12T06:14:40.226Z,865.05
2018-08-12T06:15:40.279Z,865.06
2018-08-12T06:16:39.909Z,865.06
2018-08-12T06:17:39.884Z,865.06
2018-08-12T06:18:39.865Z,865.05
2018-08-12T06:19:40.198Z,865.02
2018-08-12T06:20:39.852Z,865.03
2018-08-12T06:21:40.182Z,865.03
2018-08-12T06:22:39.866Z,864.98
2018-08-12T06:23:40.171Z,864.99
2018-08-12T06:24:39.825Z,864.99
2018-08-12T06:25:39.887Z,864.96
2018-08-12T06:26:39.833Z,864.93
2018-08-12T06:27:39.825Z,864.94
2018-08-12T06:28:40.159Z,864.97
2018-08-12T06:29:40.150Z,864.92
2018-08-12T06:30:40.879Z,864.93
2018-08-12T06:31:40.135Z,864.91
2018-08-12T06:32:40.128Z,864.85
2018-08-12T06:33:39.775Z,864.85
2018-08-12T06:34:40.101Z,864.83
2018-08-12T06:35:39.782Z,864.82
2018-08-12T06:36:40.086Z,864.81
2018-08-12T06:37:40.096Z,864.80
2018-08-12T06:38:40.103Z,864.84
2018-08-12T06:39:40.080Z,864.83
2018-08-12T06:40:40.083Z,864.79
2018-08-12T06:41:39.711Z,864.77
2018-08-12T06:42:39.713Z,864.84
2018-08-12T06:43:39.716Z,864.81
2018-08-12T06:44:40.050Z,864.81
2018-08-12T06:45:40.026Z,864.81
2018-08-12T06:46:40.035Z,864.82
2018-08-12T06:47:40.020Z,864.77
2018-08-12T06:48:39.678Z,864.76
2018-08-12T06:49:40.015Z,864.80
2018-08-12T06:50:39.664Z,864.76
2018-08-12T06:51:39.999Z,864.78
2018-08-12T06:52:39.977Z,864.71
2018-08-12T06:53:39.972Z,864.73
2018-08-12T06:54:39.651Z,864.74
2018-08-12T06:55:39.652Z,864.74
2018-08-12T06:56:39.623Z,864.74
2018-08-12T06:57:39.620Z,864.77
2018-08-12T06:58:39.607Z,864.75
2018-08-12T06:59:39.603Z,864.74
2018-08-12T07:00:39.927Z,864.73
2018-08-12T07:01:39.935Z,864.73
2018-08-12T07:02:39.912Z,864.70
2018-08-12T07:03:39.907Z,864.65
2018-08-12T07:04:39.916Z,864.63
2018-08-12T07:05:39.903Z,864.62
2018-08-12T07:06:39.899Z,864.59
2018-08-12T07:07:39.898Z,864.60
2018-08-12T07:08:39.873Z,864.60
2018-08-12T07:09:39.552Z,864.61
2018-08-12T07:10:39.872Z,864.59
2018-08-12T07:11:39.524Z,864.61
2018-08-12T07:12:39.845Z,864.58
2018-08-12T07:13:39.855Z,864.58
2018-08-12T07:14:39.850Z,864.57
2018-08-12T07:15:39.507Z,864.58
2018-08-12T07:16:39.827Z,864.59
2018-08-12T07:17:39.508Z,864.59
2018-08-12T07:18:39.477Z,864.59
2018-08-12T07:19:39.804Z,864.60
2018-08-12T07:20:39.791Z,864.56
2018-08-12T07:21:39.794Z,864.56
2018-08-12T07:22:39.799Z,864.59
2018-08-12T07:23:39.460Z,864.56
2018-08-12T07:24:39.818Z,864.56
2018-08-12T07:25:39.436Z,864.53
2018-08-12T07:26:39.775Z,864.52
2018-08-12T07:27:39.439Z,864.54
2018-08-12T07:28:39.426Z,864.50
2018-08-12T07:29:39.416Z,864.52
2018-08-12T07:30:39.727Z,864.57
2018-08-12T07:31:39.718Z,864.51
2018-08-12T07:32:39.713Z,864.47
2018-08-12T07:33:39.719Z,864.47
2018-08-12T07:34:39.373Z,864.48
2018-08-12T07:35:39.719Z,864.42
2018-08-12T07:36:39.362Z,864.46
2018-08-12T07:37:39.356Z,864.47
2018-08-12T07:38:39.695Z,864.48
2018-08-12T07:39:39.332Z,864.44
2018-08-12T07:40:39.333Z,864.47
2018-08-12T07:41:39.328Z,864.47
2018-08-12T07:42:39.662Z,864.52
2018-08-12T07:43:39.657Z,864.48
2018-08-12T07:44:39.633Z,864.48
2018-08-12T07:45:39.289Z,864.43
2018-08-12T07:46:39.304Z,864.46
2018-08-12T07:47:39.288Z,864.44
2018-08-12T07:48:39.322Z,864.43
2018-08-12T07:49:39.599Z,864.42
2018-08-12T07:50:39.284Z,864.44
2018-08-12T07:51:39.270Z,864.44
2018-08-12T07:52:39.247Z,864.42
2018-08-12T07:53:39.237Z,864.47
2018-08-12T07:54:39.258Z,864.45
2018-08-12T07:55:39.595Z,864.47
2018-08-12T07:56:39.234Z,864.44
2018-08-12T07:57:39.229Z,864.46
2018-08-12T07:58:39.540Z,864.46
2018-08-12T07:59:39.209Z,864.42
2018-08-12T08:00:39.544Z,864.44
2018-08-12T08:01:39.520Z,864.41
2018-08-12T08:02:39.523Z,864.45
2018-08-12T08:03:39.177Z,864.46
2018-08-12T08:04:39.167Z,864.46
2018-08-12T08:05:39.510Z,864.48
2018-08-12T08:06:39.174Z,864.52
2018-08-12T08:07:39.167Z,864.47
2018-08-12T08:08:39.177Z,864.50
2018-08-12T08:09:39.485Z,864.47
2018-08-12T08:10:39.486Z,864.46
2018-08-12T08:11:39.473Z,864.45
2018-08-12T08:12:39.252Z,864.44
2018-08-12T08:13:39.432Z,864.40
2018-08-12T08:14:39.118Z,864.39
2018-08-12T08:15:39.445Z,864.38
2018-08-12T08:16:39.424Z,864.40
2018-08-12T08:17:39.417Z,864.37
2018-08-12T08:18:39.109Z,864.40
2018-08-12T08:19:39.456Z,864.36
2018-08-12T08:20:39.396Z,864.34
2018-08-12T08:21:39.396Z,864.32
2018-08-12T08:22:39.384Z,864.29
2018-08-12T08:23:39.049Z,864.29
2018-08-12T08:24:39.390Z,864.32
2018-08-12T08:25:39.396Z,864.34
2018-08-12T08:26:39.056Z,864.28
2018-08-12T08:27:39.028Z,864.28
2018-08-12T08:28:39.039Z,864.33
2018-08-12T08:29:39.342Z,864.28
2018-08-12T08:30:39.341Z,864.30
2018-08-12T08:31:39.208Z,864.31
2018-08-12T08:32:39.316Z,864.28
2018-08-12T08:33:38.992Z,864.29
2018-08-12T08:34:39.321Z,864.26
2018-08-12T08:35:39.312Z,864.29
2018-08-12T08:36:39.288Z,864.28
2018-08-12T08:37:39.307Z,864.33
2018-08-12T08:38:38.960Z,864.32
2018-08-12T08:39:39.270Z,864.32
2018-08-12T08:40:38.943Z,864.31
2018-08-12T08:41:39.273Z,864.27
2018-08-12T08:42:38.929Z,864.28
2018-08-12T08:43:39.288Z,864.29
2018-08-12T08:44:39.234Z,864.28
2018-08-12T08:45:39.232Z,864.24
2018-08-12T08:46:39.244Z,864.26
2018-08-12T08:48:38.909Z,864.22
2018-08-12T08:49:38.863Z,864.23
2018-08-12T08:50:39.211Z,864.25
2018-08-12T08:51:39.207Z,864.26
2018-08-12T08:52:38.852Z,864.21
2018-08-12T08:53:38.838Z,864.23
2018-08-12T08:54:38.872Z,864.26
2018-08-12T08:55:39.228Z,864.26
2018-08-12T08:56:39.176Z,864.25
2018-08-12T08:57:38.835Z,864.22
2018-08-12T08:58:38.823Z,864.20
2018-08-12T08:59:39.139Z,864.27
2018-08-12T09:00:38.824Z,864.24
2018-08-12T09:01:39.123Z,864.26
2018-08-12T09:02:38.778Z,864.30
2018-08-12T09:03:38.790Z,864.27
2018-08-12T09:04:39.121Z,864.26
2018-08-12T09:05:39.345Z,864.29
2018-08-12T09:06:38.762Z,864.25
2018-08-12T09:07:38.760Z,864.26
2018-08-12T09:08:38.947Z,864.26
2018-08-12T09:09:39.095Z,864.25
2018-08-12T09:10:39.079Z,864.25
2018-08-12T09:11:38.741Z,864.23
2018-08-12T09:12:38.712Z,864.23
2018-08-12T09:13:38.716Z,864.23
2018-08-12T09:14:39.055Z,864.24
2018-08-12T09:15:39.048Z,864.22
2018-08-12T09:16:38.705Z,864.24
2018-08-12T09:17:39.022Z,864.24
2018-08-12T09:18:39.026Z,864.25
2018-08-12T09:19:39.000Z,864.26
2018-08-12T09:20:38.988Z,864.33
2018-08-12T09:21:38.989Z,864.30
2018-08-12T09:22:38.672Z,864.28
2018-08-12T09:23:38.650Z,864.27
2018-08-12T09:24:38.999Z,864.31
2018-08-12T09:25:38.963Z,864.31
2018-08-12T09:26:38.623Z,864.32
2018-08-12T09:27:38.957Z,864.32
2018-08-12T09:28:38.951Z,864.29
2018-08-12T09:29:38.597Z,864.30
2018-08-12T09:30:38.614Z,864.33
2018-08-12T09:31:38.609Z,864.36
2018-08-12T09:32:38.933Z,864.33
2018-08-12T09:33:38.601Z,864.36
2018-08-12T09:34:38.574Z,864.33
2018-08-12T09:35:38.559Z,864.41
2018-08-12T09:36:38.905Z,864.42
2018-08-12T09:37:38.568Z,864.41
2018-08-12T09:38:38.870Z,864.40
2018-08-12T09:39:38.934Z,864.44
2018-08-12T09:40:38.889Z,864.35
2018-08-12T09:41:38.873Z,864.36
2018-08-12T09:42:38.513Z,864.37
2018-08-12T09:43:38.859Z,864.38
2018-08-12T09:44:38.540Z,864.41
2018-08-12T09:45:38.513Z,864.44
2018-08-12T09:46:38.501Z,864.43
2018-08-12T09:47:38.487Z,864.49
2018-08-12T09:48:38.810Z,864.51
2018-08-12T09:49:38.487Z,864.50
2018-08-12T09:50:38.815Z,864.52
2018-08-12T09:51:38.844Z,864.54
2018-08-12T09:52:38.783Z,864.58
2018-08-12T09:53:38.792Z,864.56
2018-08-12T09:54:38.456Z,864.53
2018-08-12T09:55:38.781Z,864.48
2018-08-12T09:56:38.773Z,864.51
2018-08-12T09:57:38.429Z,864.50
2018-08-12T09:58:38.416Z,864.48
2018-08-12T09:59:38.427Z,864.45
2018-08-12T10:00:38.415Z,864.43
2018-08-12T10:01:38.395Z,864.42
2018-08-12T10:02:38.731Z,864.42
2018-08-12T10:03:38.398Z,864.45
2018-08-12T10:04:38.381Z,864.45
2018-08-12T10:05:38.371Z,864.48
2018-08-12T10:06:38.379Z,864.48
2018-08-12T10:07:38.346Z,864.46
2018-08-12T10:08:38.380Z,864.40
2018-08-12T10:09:38.342Z,864.36
2018-08-12T10:10:38.655Z,864.37
2018-08-12T10:11:38.359Z,864.34
2018-08-12T10:12:38.333Z,864.32
2018-08-12T10:13:38.660Z,864.31
2018-08-12T10:14:38.308Z,864.31
2018-08-12T10:15:38.300Z,864.31
2018-08-12T10:16:38.623Z,864.30
2018-08-12T10:17:38.634Z,864.30
2018-08-12T10:18:38.627Z,864.30
2018-08-12T10:19:38.289Z,864.31
2018-08-12T10:20:38.282Z,864.30
2018-08-12T10:21:38.687Z,864.27
2018-08-12T10:22:38.267Z,864.33
2018-08-12T10:23:38.585Z,864.31
2018-08-12T10:24:38.230Z,864.33
2018-08-12T10:25:38.560Z,864.28
2018-08-12T10:26:38.229Z,864.31
2018-08-12T10:27:38.234Z,864.29
2018-08-12T10:28:38.564Z,864.32
2018-08-12T10:29:38.222Z,864.27
2018-08-12T10:30:38.526Z,864.32
2018-08-12T10:31:38.225Z,864.36
2018-08-12T10:32:38.515Z,864.36
2018-08-12T10:33:38.527Z,864.37
2018-08-12T10:34:38.173Z,864.39
2018-08-12T10:35:38.514Z,864.40
2018-08-12T10:36:38.166Z,864.40
2018-08-12T10:37:38.169Z,864.43
2018-08-12T10:38:38.179Z,864.44
2018-08-12T10:39:38.495Z,864.44
2018-08-12T10:40:38.143Z,864.41
2018-08-12T10:41:38.475Z,864.41
2018-08-12T10:42:38.450Z,864.40
2018-08-12T10:43:38.462Z,864.38
2018-08-12T10:44:38.119Z,864.43
2018-08-12T10:45:38.445Z,864.40
2018-08-12T10:46:38.422Z,864.41
2018-08-12T10:47:38.433Z,864.42
2018-08-12T10:48:38.075Z,864.42
2018-08-12T10:49:38.420Z,864.38
2018-08-12T10:50:38.078Z,864.38
2018-08-12T10:51:38.406Z,864.38
2018-08-12T10:52:38.052Z,864.40
2018-08-12T10:53:38.394Z,864.39
2018-08-12T10:54:38.055Z,864.38
2018-08-12T10:55:38.358Z,864.41
2018-08-12T10:57:38.050Z,864.39
2018-08-12T10:58:38.010Z,864.39
2018-08-12T10:59:38.352Z,864.38
2018-08-12T11:00:38.012Z,864.36
2018-08-12T11:01:38.338Z,864.37
2018-08-12T11:02:37.988Z,864.38
2018-08-12T11:03:38.316Z,864.33
2018-08-12T11:04:38.311Z,864.38
2018-08-12T11:05:38.310Z,864.35
2018-08-12T11:06:37.975Z,864.39
2018-08-12T11:07:38.281Z,864.39
2018-08-12T11:08:37.943Z,864.38
2018-08-12T11:09:38.286Z,864.38
2018-08-12T11:10:38.260Z,864.38
2018-08-12T11:11:37.928Z,864.37
2018-08-12T11:12:37.940Z,864.37
2018-08-12T11:13:37.923Z,864.34
2018-08-12T11:14:37.939Z,864.34
2018-08-12T11:15:37.904Z,864.37
2018-08-12T11:16:37.905Z,864.36
2018-08-12T11:17:38.232Z,864.40
2018-08-12T11:18:37.890Z,864.38
2018-08-12T11:19:38.205Z,864.43
2018-08-12T11:20:38.214Z,864.42
2018-08-12T11:21:37.871Z,864.42
2018-08-12T11:22:37.854Z,864.45
2018-08-12T11:23:38.202Z,864.42
2018-08-12T11:24:38.184Z,864.43
2018-08-12T11:25:37.819Z,864.45
2018-08-12T11:26:37.825Z,864.48
2018-08-12T11:27:38.168Z,864.46
2018-08-12T11:28:37.870Z,864.42
2018-08-12T11:29:38.149Z,864.46
2018-08-12T11:30:38.128Z,864.47
2018-08-12T11:31:37.804Z,864.45
2018-08-12T11:32:37.806Z,864.46
2018-08-12T11:33:38.101Z,864.48
2018-08-12T11:34:37.792Z,864.45
2018-08-12T11:35:37.778Z,864.45
2018-08-12T11:36:38.104Z,864.45
2018-08-12T11:37:37.763Z,864.46
2018-08-12T11:38:37.756Z,864.49
2018-08-12T11:39:38.083Z,864.46
2018-08-12T11:40:37.727Z,864.52
2018-08-12T11:41:38.093Z,864.43
2018-08-12T11:42:38.048Z,864.47
2018-08-12T11:43:38.065Z,864.47
2018-08-12T11:44:37.704Z,864.48
2018-08-12T11:45:37.707Z,864.49
2018-08-12T11:46:38.038Z,864.50
2018-08-12T11:47:37.760Z,864.52
2018-08-12T11:48:38.009Z,864.54
2018-08-12T11:49:37.687Z,864.54
2018-08-12T11:50:37.652Z,864.53
2018-08-12T11:51:38.006Z,864.54
2018-08-12T11:52:37.662Z,864.54
2018-08-12T11:53:37.655Z,864.54
2018-08-12T11:54:37.982Z,864.54
2018-08-12T11:55:37.958Z,864.55
2018-08-12T11:56:37.949Z,864.55
2018-08-12T11:57:37.650Z,864.56
2018-08-12T11:58:37.614Z,864.57
2018-08-12T11:59:37.947Z,864.55
2018-08-12T12:00:37.585Z,864.61
2018-08-12T12:01:37.936Z,864.58
2018-08-12T12:02:37.589Z,864.56
2018-08-12T12:03:37.903Z,864.58
2018-08-12T12:04:37.561Z,864.58
2018-08-12T12:05:37.556Z,864.59
2018-08-12T12:06:37.901Z,864.59
2018-08-12T12:07:37.879Z,864.62
2018-08-12T12:08:37.553Z,864.65
2018-08-12T12:09:37.542Z,864.67
2018-08-12T12:10:37.877Z,864.66
2018-08-12T12:11:37.869Z,864.72
2018-08-12T12:12:37.845Z,864.74
2018-08-12T12:13:37.863Z,864.74
2018-08-12T12:14:37.831Z,864.71
2018-08-12T12:15:37.495Z,864.72
2018-08-12T12:16:37.845Z,864.70
2018-08-12T12:17:37.826Z,864.72
2018-08-12T12:18:37.822Z,864.69
2018-08-12T12:19:37.793Z,864.71
2018-08-12T12:20:38.077Z,864.73
2018-08-12T12:21:37.799Z,864.73
2018-08-12T12:22:37.448Z,864.71
2018-08-12T12:23:37.443Z,864.76
2018-08-12T12:24:37.465Z,864.73
2018-08-12T12:25:37.416Z,864.77
2018-08-12T12:26:37.766Z,864.81
2018-08-12T12:27:37.743Z,864.80
2018-08-12T12:28:37.752Z,864.85
2018-08-12T12:29:37.422Z,864.86
2018-08-12T12:30:37.380Z,864.87